Time;durP1;ratioP1;P1;durP2;ratioP2;P2;SDS_P1;SDS_P2;PMS_P1;PMS_P2;Temp;Humidity;BMP_temperature;BMP_pressure;BME280_temperature;BME280_humidity;BME280_pressure;Samples;Min_cycle;Max_cycle;Signal;HPM_P1;HPM_P2
2021/04/06 00:00:38;;;;;;;3.40;2.37;;;;;;;;;;5043750;28;20464;-66
2021/04/06 00:03:06;;;;;;;3.13;2.27;;;;;;;;;;5033667;28;20792;-66
2021/04/06 00:05:33;;;;;;;8.00;3.00;;;;;;;;;;5040345;28;20484;-66
2021/04/06 00:08:01;;;;;;;3.10;2.20;;;;;;;;;;5053771;28;20401;-67
2021/04/06 00:10:27;;;;;;;3.30;2.30;;;;;;;;;;5052678;28;20978;-67
2021/04/06 00:12:55;;;;;;;4.10;2.07;;;;;;;;;;5054213;28;20403;-67
2021/04/06 00:15:22;;;;;;;4.70;2.47;;;;;;;;;;5052413;28;20456;-67
2021/04/06 00:17:50;;;;;;;3.30;2.50;;;;;;;;;;5053699;28;20419;-67
2021/04/06 00:20:16;;;;;;;3.97;2.10;;;;;;;;;;5052420;28;20453;-67
2021/04/06 00:22:43;;;;;;;5.77;3.40;;;;;;;;;;5053571;28;20493;-67
2021/04/06 00:25:11;;;;;;;3.67;2.50;;;;;;;;;;5052350;28;20480;-66
2021/04/06 00:27:41;;;;;;;8.27;2.73;;;;;;;;;;5053437;28;20430;-66
2021/04/06 00:30:11;;;;;;;5.93;2.60;;;;;;;;;;5052605;28;20818;-67
2021/04/06 00:32:37;;;;;;;5.30;3.00;;;;;;;;;;5053484;28;20457;-66
2021/04/06 00:35:05;;;;;;;2.73;2.03;;;;;;;;;;5052469;28;20437;-66
2021/04/06 00:37:31;;;;;;;3.70;2.00;;;;;;;;;;5053392;28;20459;-66
2021/04/06 00:39:59;;;;;;;4.60;2.60;;;;;;;;;;5052319;28;20482;-66
2021/04/06 00:42:27;;;;;;;4.13;2.40;;;;;;;;;;5053417;28;20538;-66
2021/04/06 00:44:55;;;;;;;3.07;2.20;;;;;;;;;;5051889;28;20409;-66
2021/04/06 00:47:28;;;;;;;3.27;2.50;;;;;;;;;;5053258;28;20449;-66
2021/04/06 00:50:01;;;;;;;3.60;2.10;;;;;;;;;;5051838;28;20435;-66
2021/04/06 00:52:28;;;;;;;5.17;2.20;;;;;;;;;;5053152;28;20411;-66
2021/04/06 00:54:57;;;;;;;6.40;2.83;;;;;;;;;;5051093;28;20808;-66
2021/04/06 00:57:26;;;;;;;4.67;2.40;;;;;;;;;;5033328;28;20407;-66
2021/04/06 01:00:08;;;;;;;8.07;2.60;;;;;;;;;;5040640;28;20495;-67
2021/04/06 01:02:34;;;;;;;5.23;2.20;;;;;;;;;;5053057;28;20439;-67
2021/04/06 01:05:03;;;;;;;3.83;2.17;;;;;;;;;;5051820;28;20401;-67
2021/04/06 01:07:33;;;;;;;2.40;2.20;;;;;;;;;;5053132;28;20400;-66
2021/04/06 01:10:00;;;;;;;4.40;2.93;;;;;;;;;;5050991;28;20447;-68
2021/04/06 01:12:28;;;;;;;4.90;2.73;;;;;;;;;;5033020;28;20922;-68
2021/04/06 01:14:55;;;;;;;5.73;2.53;;;;;;;;;;5032986;28;20423;-68
2021/04/06 01:17:32;;;;;;;2.33;1.83;;;;;;;;;;5032881;28;20418;-68
2021/04/06 01:20:09;;;;;;;6.57;2.97;;;;;;;;;;5033417;28;20433;-68
2021/04/06 01:22:36;;;;;;;2.30;1.93;;;;;;;;;;5052898;28;20515;-68
2021/04/06 01:25:04;;;;;;;3.30;2.50;;;;;;;;;;5052987;28;20399;-68
2021/04/06 01:27:30;;;;;;;3.10;1.97;;;;;;;;;;5051036;28;20421;-68
2021/04/06 01:29:57;;;;;;;3.43;2.20;;;;;;;;;;5052665;28;20425;-67
2021/04/06 01:32:24;;;;;;;5.97;2.20;;;;;;;;;;5036049;28;20431;-67
2021/04/06 01:34:51;;;;;;;2.67;2.10;;;;;;;;;;5032860;28;20415;-67
2021/04/06 01:37:21;;;;;;;2.60;2.37;;;;;;;;;;5046798;28;20424;-67
2021/04/06 01:39:50;;;;;;;2.83;2.33;;;;;;;;;;5052349;28;20434;-67
2021/04/06 01:42:16;;;;;;;3.00;2.30;;;;;;;;;;5051147;28;20458;-67
2021/04/06 01:44:46;;;;;;;3.10;2.23;;;;;;;;;;5052255;28;20406;-67
2021/04/06 01:47:14;;;;;;;2.90;2.23;;;;;;;;;;5053586;28;20463;-67
2021/04/06 01:49:41;;;;;;;3.47;2.50;;;;;;;;;;5055826;28;20943;-67
2021/04/06 01:52:07;;;;;;;4.47;2.60;;;;;;;;;;5054435;28;20425;-67
2021/04/06 01:54:35;;;;;;;4.13;2.60;;;;;;;;;;5049349;28;20434;-67
2021/04/06 01:57:12;;;;;;;5.43;2.60;;;;;;;;;;5047538;28;20430;-67
2021/04/06 01:59:42;;;;;;;3.43;3.00;;;;;;;;;;5055973;28;20434;-67
2021/04/06 02:02:10;;;;;;;4.93;2.50;;;;;;;;;;5054737;28;20454;-67
2021/04/06 02:04:36;;;;;;;7.30;3.23;;;;;;;;;;5055934;28;20403;-67
2021/04/06 02:07:07;;;;;;;4.67;2.47;;;;;;;;;;5054386;28;20421;-67
2021/04/06 02:09:33;;;;;;;4.70;2.63;;;;;;;;;;5055205;28;20458;-67
2021/04/06 02:11:59;;;;;;;7.83;2.10;;;;;;;;;;5054499;28;20444;-67
2021/04/06 02:14:25;;;;;;;6.63;2.53;;;;;;;;;;5041512;28;20430;-67
2021/04/06 02:16:51;;;;;;;5.80;2.90;;;;;;;;;;5044687;28;20440;-67
2021/04/06 02:19:21;;;;;;;6.27;3.20;;;;;;;;;;5055326;28;20419;-67
2021/04/06 02:21:51;;;;;;;3.20;2.70;;;;;;;;;;5054300;28;20521;-67
2021/04/06 02:24:36;;;;;;;7.13;2.70;;;;;;;;;;5053962;28;20491;-67
2021/04/06 02:27:06;;;;;;;5.03;2.80;;;;;;;;;;5044110;28;20562;-66
2021/04/06 02:29:37;;;;;;;4.27;2.50;;;;;;;;;;5035459;28;20441;-67
2021/04/06 02:32:05;;;;;;;13.10;3.40;;;;;;;;;;5045210;28;20572;-67
2021/04/06 02:34:35;;;;;;;4.80;2.53;;;;;;;;;;5055277;28;20888;-66
2021/04/06 02:37:01;;;;;;;5.10;2.93;;;;;;;;;;5053743;28;20942;-68
2021/04/06 02:39:27;;;;;;;4.27;3.77;;;;;;;;;;5055038;28;20432;-67
2021/04/06 02:41:53;;;;;;;11.73;4.57;;;;;;;;;;5054019;28;20458;-66
2021/04/06 02:44:19;;;;;;;3.77;2.63;;;;;;;;;;5055300;28;20427;-66
2021/04/06 02:46:51;;;;;;;5.20;3.27;;;;;;;;;;5054065;28;20429;-67
2021/04/06 02:49:17;;;;;;;3.80;3.17;;;;;;;;;;5054683;28;20467;-68
2021/04/06 02:51:43;;;;;;;4.37;3.43;;;;;;;;;;5054031;28;20792;-68
2021/04/06 02:54:09;;;;;;;5.67;3.57;;;;;;;;;;5054776;28;20420;-68
2021/04/06 02:56:36;;;;;;;5.60;3.93;;;;;;;;;;5051706;28;20499;-68
2021/04/06 02:59:18;;;;;;;6.30;3.77;;;;;;;;;;5053738;28;20433;-68
2021/04/06 03:01:45;;;;;;;6.00;3.30;;;;;;;;;;5052801;28;20543;-67
2021/04/06 03:04:18;;;;;;;6.27;3.23;;;;;;;;;;5054637;28;20405;-67
2021/04/06 03:06:44;;;;;;;11.53;3.90;;;;;;;;;;5053600;28;20934;-68
2021/04/06 03:09:13;;;;;;;6.03;4.13;;;;;;;;;;5053057;28;20427;-68
2021/04/06 03:11:46;;;;;;;8.10;3.20;;;;;;;;;;5047888;28;20433;-68
2021/04/06 03:14:13;;;;;;;4.20;2.87;;;;;;;;;;5034526;28;20439;-67
2021/04/06 03:16:40;;;;;;;6.73;3.50;;;;;;;;;;5039454;28;20423;-68
2021/04/06 03:19:06;;;;;;;5.57;3.50;;;;;;;;;;5054097;28;20474;-68
2021/04/06 03:21:35;;;;;;;6.43;3.50;;;;;;;;;;5052854;28;20457;-68
2021/04/06 03:24:02;;;;;;;5.80;3.10;;;;;;;;;;5054358;28;20752;-68
2021/04/06 03:26:29;;;;;;;5.37;2.93;;;;;;;;;;5041356;28;20524;-68
2021/04/06 03:28:59;;;;;;;4.23;3.80;;;;;;;;;;5034018;28;20405;-67
2021/04/06 03:31:28;;;;;;;7.60;3.50;;;;;;;;;;5045503;28;20739;-67
2021/04/06 03:33:55;;;;;;;4.80;3.37;;;;;;;;;;5053854;28;20768;-68
2021/04/06 03:36:23;;;;;;;3.50;2.83;;;;;;;;;;5042164;28;20895;-68
2021/04/06 03:38:50;;;;;;;6.03;2.83;;;;;;;;;;5034205;28;20400;-68
2021/04/06 03:41:19;;;;;;;3.37;2.90;;;;;;;;;;5043399;28;21051;-68
2021/04/06 03:43:45;;;;;;;6.10;3.43;;;;;;;;;;5053584;28;20488;-68
2021/04/06 03:46:11;;;;;;;7.30;2.93;;;;;;;;;;5046679;28;20859;-68
2021/04/06 03:48:39;;;;;;;3.97;2.93;;;;;;;;;;5054202;28;20398;-68
2021/04/06 03:51:22;;;;;;;6.70;3.13;;;;;;;;;;5045473;28;20456;-68
2021/04/06 03:53:48;;;;;;;3.47;2.60;;;;;;;;;;5034205;28;20392;-68
2021/04/06 03:56:14;;;;;;;5.00;2.67;;;;;;;;;;5042696;28;20428;-67
2021/04/06 03:58:47;;;;;;;3.23;2.70;;;;;;;;;;5053798;28;20776;-68
2021/04/06 04:01:14;;;;;;;4.23;2.50;;;;;;;;;;5052842;28;20804;-68
2021/04/06 04:03:40;;;;;;;4.80;2.80;;;;;;;;;;5053641;28;20453;-68
2021/04/06 04:06:07;;;;;;;5.10;3.00;;;;;;;;;;5043691;28;20480;-67
2021/04/06 04:08:33;;;;;;;3.20;2.27;;;;;;;;;;5053197;28;20435;-67
2021/04/06 04:10:59;;;;;;;4.30;2.33;;;;;;;;;;5052538;28;21037;-68
2021/04/06 04:13:25;;;;;;;4.30;2.70;;;;;;;;;;5053550;28;20494;-73
2021/04/06 04:15:52;;;;;;;5.73;3.13;;;;;;;;;;5052749;28;20517;-68
2021/04/06 04:18:18;;;;;;;4.07;2.70;;;;;;;;;;5053344;28;20402;-68
2021/04/06 04:20:44;;;;;;;8.40;3.17;;;;;;;;;;5052342;28;20793;-67
2021/04/06 04:23:10;;;;;;;3.87;2.47;;;;;;;;;;5053653;28;20543;-68
2021/04/06 04:25:36;;;;;;;3.50;2.60;;;;;;;;;;5050550;28;20529;-68
2021/04/06 04:28:02;;;;;;;3.20;2.53;;;;;;;;;;5033491;28;20453;-68
2021/04/06 04:33:27;;;;;;;2.10;1.90;;;;;;;;;;5000531;28;20418;-68
2021/04/06 04:35:53;;;;;;;8.70;2.87;;;;;;;;;;5038184;28;20422;-68
2021/04/06 04:38:19;;;;;;;9.80;3.43;;;;;;;;;;5052665;28;20778;-68
2021/04/06 04:40:45;;;;;;;4.53;2.43;;;;;;;;;;5052421;28;20492;-68
2021/04/06 04:43:12;;;;;;;2.70;2.23;;;;;;;;;;5053646;28;20457;-68
2021/04/06 04:45:38;;;;;;;3.97;2.30;;;;;;;;;;5050275;28;20428;-68
2021/04/06 04:48:04;;;;;;;3.60;2.47;;;;;;;;;;5033365;28;20404;-68
2021/04/06 04:50:31;;;;;;;4.67;2.60;;;;;;;;;;5033424;28;20560;-68
2021/04/06 04:52:57;;;;;;;4.33;3.93;;;;;;;;;;5053389;28;20406;-68
2021/04/06 04:55:24;;;;;;;5.90;2.77;;;;;;;;;;5052671;28;20406;-68
2021/04/06 04:57:50;;;;;;;7.33;2.70;;;;;;;;;;5033613;28;20445;-68
2021/04/06 05:00:16;;;;;;;8.33;2.67;;;;;;;;;;5033680;28;20426;-68
2021/04/06 05:02:43;;;;;;;3.30;2.20;;;;;;;;;;5051677;28;20449;-68
2021/04/06 05:05:10;;;;;;;5.73;2.70;;;;;;;;;;5053355;28;20459;-67
2021/04/06 05:07:39;;;;;;;3.57;3.00;;;;;;;;;;5034669;28;20444;-67
2021/04/06 05:10:09;;;;;;;3.10;2.37;;;;;;;;;;5032828;28;20954;-68
2021/04/06 05:12:35;;;;;;;5.20;3.17;;;;;;;;;;5032717;28;20899;-67
2021/04/06 05:15:02;;;;;;;6.30;3.43;;;;;;;;;;5033205;28;20404;-67
2021/04/06 05:17:28;;;;;;;3.20;2.63;;;;;;;;;;5033176;28;20428;-67
2021/04/06 05:19:54;;;;;;;4.87;2.93;;;;;;;;;;5033364;28;20419;-68
2021/04/06 05:22:20;;;;;;;6.37;2.77;;;;;;;;;;5051096;28;20457;-68
2021/04/06 05:24:46;;;;;;;5.73;2.90;;;;;;;;;;5067533;22;20494;-69
2021/04/06 05:27:12;;;;;;;5.30;2.60;;;;;;;;;;5031095;28;20424;-69
2021/04/06 05:29:38;;;;;;;6.37;3.33;;;;;;;;;;5016824;28;20999;-69
2021/04/06 05:32:04;;;;;;;5.40;2.80;;;;;;;;;;5015996;28;20919;-69
2021/04/06 05:34:31;;;;;;;11.30;3.40;;;;;;;;;;5016753;28;20471;-69
2021/04/06 05:36:57;;;;;;;6.30;3.13;;;;;;;;;;5015624;28;20441;-69
2021/04/06 05:39:23;;;;;;;5.83;2.60;;;;;;;;;;5016578;28;20396;-69
2021/04/06 05:41:49;;;;;;;3.67;2.80;;;;;;;;;;5014713;28;20467;-69
2021/04/06 05:44:16;;;;;;;3.70;2.77;;;;;;;;;;5014183;28;20467;-69
2021/04/06 05:46:44;;;;;;;3.50;2.63;;;;;;;;;;5015578;28;20426;-69
2021/04/06 05:49:12;;;;;;;3.60;2.40;;;;;;;;;;5017028;28;20405;-69
2021/04/06 05:51:38;;;;;;;5.07;2.70;;;;;;;;;;5015738;28;20510;-69
2021/04/06 05:54:05;;;;;;;3.60;2.70;;;;;;;;;;5016814;28;20407;-69
2021/04/06 05:56:31;;;;;;;3.83;2.60;;;;;;;;;;5015588;28;20462;-69
2021/04/06 05:58:58;;;;;;;3.50;2.90;;;;;;;;;;5016103;28;20905;-69
2021/04/06 06:01:31;;;;;;;6.97;3.07;;;;;;;;;;5011406;28;20459;-69
2021/04/06 06:03:58;;;;;;;9.13;3.47;;;;;;;;;;4996742;28;20411;-69
2021/04/06 06:06:24;;;;;;;5.50;3.20;;;;;;;;;;5001192;28;20412;-69
2021/04/06 06:08:59;;;;;;;5.10;2.83;;;;;;;;;;5016008;28;20422;-69
2021/04/06 06:11:25;;;;;;;4.33;3.27;;;;;;;;;;5014423;28;20938;-71
2021/04/06 06:13:51;;;;;;;4.20;3.03;;;;;;;;;;5015037;28;20413;-69
2021/04/06 06:16:20;;;;;;;4.40;2.90;;;;;;;;;;5015255;28;20474;-69
2021/04/06 06:18:58;;;;;;;3.57;2.97;;;;;;;;;;5015412;28;20527;-69
2021/04/06 06:21:38;;;;;;;7.47;3.10;;;;;;;;;;5015273;28;20529;-69
2021/04/06 06:24:05;;;;;;;6.23;3.17;;;;;;;;;;5015644;28;20490;-69
2021/04/06 06:26:31;;;;;;;6.30;3.53;;;;;;;;;;5015031;28;20788;-69
2021/04/06 06:29:09;;;;;;;7.50;3.50;;;;;;;;;;5014600;28;20457;-69
2021/04/06 06:31:36;;;;;;;5.77;3.13;;;;;;;;;;5014879;28;20429;-69
2021/04/06 06:34:22;;;;;;;8.63;3.70;;;;;;;;;;5016872;28;20458;-69
2021/04/06 06:36:59;;;;;;;4.90;3.50;;;;;;;;;;5015204;28;20931;-68
2021/04/06 06:39:25;;;;;;;5.87;3.10;;;;;;;;;;5017493;28;20892;-69
2021/04/06 06:42:05;;;;;;;6.27;3.33;;;;;;;;;;5015921;28;20556;-69
2021/04/06 06:44:32;;;;;;;6.13;3.60;;;;;;;;;;5015931;28;20437;-70
2021/04/06 06:47:08;;;;;;;5.23;3.27;;;;;;;;;;5015106;28;20427;-70
2021/04/06 06:49:37;;;;;;;3.23;2.60;;;;;;;;;;5015488;28;20402;-68
2021/04/06 06:52:04;;;;;;;5.30;3.20;;;;;;;;;;5013676;28;20918;-69
2021/04/06 06:54:40;;;;;;;3.70;2.73;;;;;;;;;;5015379;28;20651;-68
2021/04/06 06:57:16;;;;;;;3.87;2.50;;;;;;;;;;5014589;28;20423;-68
2021/04/06 06:59:45;;;;;;;9.63;2.83;;;;;;;;;;5015660;28;20393;-68
2021/04/06 07:02:27;;;;;;;3.80;2.60;;;;;;;;;;5004899;28;20455;-68
2021/04/06 07:04:54;;;;;;;3.90;2.70;;;;;;;;;;5007187;28;20454;-68
2021/04/06 07:07:20;;;;;;;3.03;2.73;;;;;;;;;;5006637;28;20469;-68
2021/04/06 07:09:48;;;;;;;4.93;2.80;;;;;;;;;;5000686;28;20424;-68
2021/04/06 07:12:15;;;;;;;4.27;3.03;;;;;;;;;;5006459;28;20436;-69
2021/04/06 07:14:42;;;;;;;5.07;3.33;;;;;;;;;;5006863;28;20453;-69
2021/04/06 07:17:10;;;;;;;4.27;2.40;;;;;;;;;;5001248;28;20435;-68
2021/04/06 07:19:41;;;;;;;4.60;2.70;;;;;;;;;;5008259;28;20515;-69
2021/04/06 07:22:07;;;;;;;4.97;2.53;;;;;;;;;;5004438;28;20536;-68
2021/04/06 07:24:34;;;;;;;4.90;2.67;;;;;;;;;;5009724;28;20989;-69
2021/04/06 07:27:04;;;;;;;3.30;2.33;;;;;;;;;;5014556;28;20955;-69
2021/04/06 07:29:31;;;;;;;7.20;2.80;;;;;;;;;;5010865;28;20477;-69
2021/04/06 07:31:58;;;;;;;3.50;2.03;;;;;;;;;;5013135;28;20660;-67
2021/04/06 07:34:25;;;;;;;6.53;3.10;;;;;;;;;;5009085;28;20444;-68
2021/04/06 07:36:52;;;;;;;4.73;2.17;;;;;;;;;;5005933;28;20427;-67
2021/04/06 07:39:18;;;;;;;4.60;2.60;;;;;;;;;;5012332;28;20532;-68
2021/04/06 07:41:45;;;;;;;3.97;2.50;;;;;;;;;;5010531;28;20451;-68
2021/04/06 07:44:12;;;;;;;4.87;2.50;;;;;;;;;;5008580;28;20421;-68
2021/04/06 07:46:39;;;;;;;4.53;2.27;;;;;;;;;;5009307;28;20426;-68
2021/04/06 07:49:08;;;;;;;8.30;3.60;;;;;;;;;;5010946;28;20426;-68
2021/04/06 07:51:39;;;;;;;3.47;2.53;;;;;;;;;;5011713;28;20543;-69
2021/04/06 07:54:05;;;;;;;2.67;2.03;;;;;;;;;;5001270;28;20830;-69
2021/04/06 07:59:30;;;;;;;2.60;1.93;;;;;;;;;;4996806;28;20800;-69
2021/04/06 08:01:56;;;;;;;4.23;2.00;;;;;;;;;;4998751;28;20453;-69
2021/04/06 08:04:26;;;;;;;10.47;2.23;;;;;;;;;;5005467;28;20975;-69
2021/04/06 08:06:56;;;;;;;9.17;3.17;;;;;;;;;;5008658;28;20426;-71
2021/04/06 08:09:28;;;;;;;4.93;2.00;;;;;;;;;;5009821;28;20832;-64
2021/04/06 08:12:10;;;;;;;2.00;1.60;;;;;;;;;;5011546;28;20427;-64
2021/04/06 08:14:41;;;;;;;4.37;2.40;;;;;;;;;;5011343;28;20436;-64
2021/04/06 08:17:28;;;;;;;5.13;2.37;;;;;;;;;;5008542;28;20515;-64
2021/04/06 08:19:58;;;;;;;6.90;2.20;;;;;;;;;;5036051;28;20415;-65
2021/04/06 08:22:25;;;;;;;3.70;2.27;;;;;;;;;;5005542;28;20516;-67
2021/04/06 08:24:52;;;;;;;5.67;2.10;;;;;;;;;;5007617;28;20468;-67
2021/04/06 08:27:37;;;;;;;5.00;2.33;;;;;;;;;;5010120;28;20446;-66
2021/04/06 08:30:26;;;;;;;4.33;2.20;;;;;;;;;;5005845;28;20444;-65
2021/04/06 08:32:58;;;;;;;7.63;3.10;;;;;;;;;;5005814;28;20554;-66
2021/04/06 08:35:42;;;;;;;4.77;2.43;;;;;;;;;;5010649;28;20787;-67
2021/04/06 08:38:21;;;;;;;4.90;1.90;;;;;;;;;;5009485;28;21260;-71
2021/04/06 08:40:51;;;;;;;5.83;2.43;;;;;;;;;;5009210;28;20420;-73
2021/04/06 08:43:18;;;;;;;3.70;2.47;;;;;;;;;;5005167;28;20470;-72
2021/04/06 08:46:07;;;;;;;4.27;2.70;;;;;;;;;;5006099;28;20793;-73
2021/04/06 08:48:46;;;;;;;6.27;2.67;;;;;;;;;;4993813;28;20484;-71
2021/04/06 08:51:25;;;;;;;10.10;2.70;;;;;;;;;;5003501;28;20474;-71
2021/04/06 08:54:11;;;;;;;10.90;2.90;;;;;;;;;;5004814;28;20435;-70
2021/04/06 08:56:39;;;;;;;6.50;2.90;;;;;;;;;;5008203;28;20477;-69
2021/04/06 08:59:17;;;;;;;4.60;2.23;;;;;;;;;;5017596;28;20439;-70
2021/04/06 09:01:45;;;;;;;7.53;2.90;;;;;;;;;;5009122;28;20943;-71
2021/04/06 09:04:12;;;;;;;5.83;2.50;;;;;;;;;;5002300;28;20438;-70
2021/04/06 09:06:38;;;;;;;3.27;1.97;;;;;;;;;;5003310;28;20424;-68
2021/04/06 09:09:04;;;;;;;4.67;2.60;;;;;;;;;;5009861;28;20858;-72
2021/04/06 09:11:31;;;;;;;6.65;2.50;;;;;;;;;;5010406;28;20438;-64
2021/04/06 09:13:57;;;;;;;4.47;2.53;;;;;;;;;;5012568;28;20181;-71
2021/04/06 09:16:31;;;;;;;3.97;2.70;;;;;;;;;;5007828;28;20449;-70
2021/04/06 09:18:58;;;;;;;3.00;1.90;;;;;;;;;;5012386;28;20514;-70
2021/04/06 09:21:26;;;;;;;5.03;2.70;;;9.10;99.90;;;;;;5009231;28;20414;-74
2021/04/06 09:23:57;;;;;;;3.87;2.53;;;2.20;99.90;;;;;;5010374;28;20494;-72
2021/04/06 09:26:23;;;;;;;5.63;2.70;;;1.90;99.90;;;;;;5010797;28;20899;-67
2021/04/06 09:29:01;;;;;;;6.43;3.20;;;2.20;99.90;;;;;;5008372;28;20268;-73
2021/04/06 09:31:28;;;;;;;3.47;2.40;;;2.50;99.90;;;;;;5006065;28;20187;-72
2021/04/06 09:34:25;;;;;;;6.07;2.60;;;3.00;99.90;;;;;;5012924;28;20781;-71
2021/04/06 09:36:58;;;;;;;4.53;2.37;;;3.00;99.90;;;;;;5010585;28;20404;-65
2021/04/06 09:39:25;;;;;;;3.47;2.43;;;3.20;99.90;;;;;;5007538;28;20419;-66
2021/04/06 09:41:51;;;;;;;6.07;2.58;;;3.20;99.90;;;;;;5008682;28;20459;-70
2021/04/06 09:44:23;;;;;;;4.00;1.90;;;3.10;99.90;;;;;;5012128;28;20454;-68
2021/04/06 09:46:51;;;;;;;7.05;2.60;;;3.30;99.90;;;;;;5011457;28;20434;-69
2021/04/06 09:49:18;;;;;;;3.33;2.40;;;3.30;99.90;;;;;;5006279;28;20815;-70
2021/04/06 09:51:50;;;;;;;12.05;3.60;;;3.50;99.90;;;;;;5012269;28;20469;-69
2021/04/06 09:54:42;;;;;;;5.87;2.50;;;3.60;99.90;;;;;;5009268;28;20275;-71
2021/04/06 09:57:10;;;;;;;3.87;2.53;;;3.80;99.90;;;;;;5010821;28;20428;-72
2021/04/06 09:59:43;;;;;;;5.37;2.13;;;3.80;99.90;;;;;;5005511;28;20791;-72
2021/04/06 10:02:15;;;;;;;5.50;2.50;;;3.60;99.90;;;;;;5008850;28;20462;-65
2021/04/06 10:04:47;;;;;;;5.65;3.17;;;3.60;99.90;;;;;;5012390;28;20426;-67
2021/04/06 10:07:18;;;;;;;4.60;2.40;;;3.70;99.90;;;;;;5009621;28;20186;-68
2021/04/06 10:09:47;;;;;;;4.40;1.93;;;3.80;99.90;;;;;;5011845;28;20442;-68
2021/04/06 10:12:13;;;;;;;6.03;2.50;;;3.80;99.90;;;;;;5008649;28;20515;-74
2021/04/06 10:14:41;;;;;;;6.20;2.90;;;3.60;99.90;;;;;;5005334;28;20980;-68
2021/04/06 10:17:12;;;;;;;6.53;2.80;;;3.70;99.90;;;;;;5008069;28;20248;-70
2021/04/06 10:19:40;;;;;;;3.00;2.17;;;3.80;99.90;;;;;;5010992;28;20415;-72
2021/04/06 10:22:10;;;;;;;6.65;2.65;;;3.70;99.90;;;;;;5011406;28;20439;-68
2021/04/06 10:24:53;;;;;;;5.57;2.40;;;3.90;99.90;;;;;;5008995;28;20200;-70
2021/04/06 10:27:27;;;;;;;3.20;1.93;;;4.30;99.90;;;;;;5010655;28;20536;-71
2021/04/06 10:29:57;;;;;;;4.80;1.90;;;4.40;99.90;;;;;;5009755;28;20443;-70
2021/04/06 10:32:25;;;;;;;2.80;2.03;;;4.30;99.90;;;;;;5007699;28;20527;-71
2021/04/06 10:34:57;;;;;;;10.80;3.23;;;4.10;99.90;;;;;;5013395;28;20445;-71
2021/04/06 10:37:23;;;;;;;2.70;2.30;;;4.30;99.90;;;;;;5008442;28;20451;-71
2021/04/06 10:39:50;;;;;;;8.80;2.50;;;4.30;99.90;;;;;;5009765;28;20437;-71
2021/04/06 10:42:17;;;;;;;4.73;2.63;;;4.30;99.90;;;;;;5010825;28;21015;-71
2021/04/06 10:44:45;;;;;;;3.40;2.20;;;4.40;99.90;;;;;;5005141;28;20444;-71
2021/04/06 10:47:26;;;;;;;7.93;3.83;;;4.40;99.90;;;;;;5002897;28;20922;-70
2021/04/06 10:49:57;;;;;;;4.90;2.23;;;4.40;99.90;;;;;;5007580;28;20506;-70
2021/04/06 10:52:29;;;;;;;4.00;2.40;;;4.10;99.90;;;;;;5006962;28;20412;-71
2021/04/06 10:54:55;;;;;;;4.33;2.10;;;4.20;99.90;;;;;;5009115;28;20480;-71
2021/04/06 10:57:29;;;;;;;6.30;2.00;;;4.50;99.90;;;;;;5012821;28;21283;-71
2021/04/06 10:59:55;;;;;;;7.90;2.77;;;4.70;99.90;;;;;;5010673;28;20834;-71
2021/04/06 11:02:22;;;;;;;3.93;2.63;;;4.60;99.90;;;;;;5012573;28;20459;-71
2021/04/06 11:04:48;;;;;;;7.23;2.53;;;4.30;99.90;;;;;;5008155;28;20300;-71
2021/04/06 11:07:14;;;;;;;5.00;2.80;;;4.20;99.90;;;;;;5011110;28;20447;-71
2021/04/06 11:09:46;;;;;;;3.47;2.50;;;3.90;99.90;;;;;;5007182;28;20953;-70
2021/04/06 11:12:13;;;;;;;3.27;2.33;;;3.60;99.90;;;;;;5008653;28;20426;-70
2021/04/06 11:14:41;;;;;;;6.63;2.07;;;3.60;99.90;;;;;;5004853;28;20482;-71
2021/04/06 11:17:08;;;;;;;5.77;3.97;;;3.70;99.90;;;;;;5003888;28;20428;-70
2021/04/06 11:19:42;;;;;;;6.13;2.10;;;3.80;99.90;;;;;;5005260;28;20959;-70
2021/04/06 11:22:11;;;;;;;7.70;3.00;;;4.10;99.90;;;;;;5010534;28;20734;-70
2021/04/06 11:24:39;;;;;;;6.57;2.40;;;4.20;99.90;;;;;;5006985;28;20523;-70
2021/04/06 11:27:07;;;;;;;3.27;1.80;;;4.00;99.90;;;;;;5005946;28;20418;-71
2021/04/06 11:29:36;;;;;;;3.87;2.47;;;4.00;99.90;;;;;;5004872;28;20435;-72
2021/04/06 11:32:08;;;;;;;5.20;2.50;;;4.10;99.90;;;;;;5003066;28;20427;-70
2021/04/06 11:34:34;;;;;;;8.80;2.83;;;4.10;99.90;;;;;;5021379;28;20458;-70
2021/04/06 11:37:00;;;;;;;4.07;2.40;;;4.20;99.90;;;;;;5004476;28;20413;-71
2021/04/06 11:39:37;;;;;;;5.30;2.73;;;4.50;99.90;;;;;;5108951;27;20535;-72
2021/04/06 11:42:05;;;;;;;3.70;2.57;;;4.70;99.90;;;;;;5102825;28;20507;-71
2021/04/06 11:44:31;;;;;;;6.00;2.20;;;4.60;99.90;;;;;;5092753;28;20445;-71
2021/04/06 11:46:58;;;;;;;3.40;2.10;;;4.50;99.90;;;;;;5094562;28;20412;-71
2021/04/06 11:49:24;;;;;;;5.13;2.47;;;4.40;99.90;;;;;;5083314;28;20603;-71
2021/04/06 11:51:49;;;;;;;4.30;2.60;;;4.70;99.90;;;;;;5088705;28;20445;-70
2021/04/06 11:54:17;;;;;;;3.07;2.27;;;4.90;99.90;;;;;;5087401;28;20181;-70
2021/04/06 11:56:44;;;;;;;5.53;2.50;;;5.10;99.90;;;;;;5086948;28;20168;-72
2021/04/06 11:59:09;;;;;;;4.50;2.40;;;5.00;99.90;;;;;;5086639;28;20957;-71
2021/04/06 12:01:35;;;;;;;3.27;2.03;;;4.90;99.90;;;;;;5089777;28;20434;-71
2021/04/06 12:04:03;;;;;;;2.87;2.07;;;4.80;99.90;;;;;;5083343;28;20177;-71
2021/04/06 12:06:29;;;;;;;7.70;2.40;;;4.80;99.90;;;;;;5089332;28;20479;-71
2021/04/06 12:08:55;;;;;;;5.47;2.60;;;4.70;99.90;;;;;;5087175;28;20442;-71
2021/04/06 12:11:20;;;;;;;2.90;1.70;;;4.30;99.90;;;;;;5084392;28;20196;-72
2021/04/06 12:13:47;;;;;;;3.47;2.47;;;4.10;99.90;;;;;;5087908;28;20210;-71
2021/04/06 12:16:13;;;;;;;5.50;2.40;;;4.10;99.90;;;;;;5088053;28;20199;-71
2021/04/06 12:18:39;;;;;;;4.13;2.40;;;4.10;99.90;;;;;;5087347;28;21062;-71
2021/04/06 12:21:07;;;;;;;3.33;1.80;;;;;;;;;;5088454;28;20410;-72
2021/04/06 12:23:33;;;;;;;4.67;2.47;;;;;;;;;;5084727;28;20182;-71
2021/04/06 12:25:59;;;;;;;6.73;2.40;;;;;;;;;;5086559;28;20449;-71
2021/04/06 12:28:25;;;;;;;3.87;2.27;;;;;;;;;;5088222;28;20509;-71
2021/04/06 12:30:51;;;;;;;3.13;2.10;;;;;;;;;;5086124;28;20477;-72
2021/04/06 12:33:17;;;;;;;4.23;2.57;;;;;;;;;;5084776;28;20421;-71
2021/04/06 12:35:43;;;;;;;9.90;2.80;;;;;;;;;;5088107;28;20497;-72
2021/04/06 12:38:09;;;;;;;5.57;2.23;;;;;;;;;;5086410;28;20771;-71
2021/04/06 12:40:35;;;;;;;2.67;1.97;;;;;;;;;;5085803;28;20937;-70
2021/04/06 12:43:01;;;;;;;3.40;2.23;;;;;;;;;;5085811;28;20791;-70
2021/04/06 12:45:27;;;;;;;4.60;2.77;;;;;;;;;;5086478;28;20449;-70
2021/04/06 12:47:54;;;;;;;9.67;3.30;;;;;;;;;;5084349;28;20420;-71
2021/04/06 12:50:21;;;;;;;4.00;2.40;;;;;;;;;;5076183;28;20434;-71
2021/04/06 12:52:47;;;;;;;4.80;2.83;;;;;;;;;;5071329;28;20427;-70
2021/04/06 12:55:14;;;;;;;5.50;3.10;;;;;;;;;;5072216;28;20499;-70
2021/04/06 12:57:40;;;;;;;6.07;2.73;;;;;;;;;;5075173;28;20477;-71
2021/04/06 13:00:07;;;;;;;7.53;2.60;;;;;;;;;;5072236;28;20426;-71
2021/04/06 13:02:33;;;;;;;3.57;3.10;;;;;;;;;;5060279;28;20469;-71
2021/04/06 13:05:00;;;;;;;3.67;2.67;;;;;;;;;;5070645;28;20499;-71
2021/04/06 13:07:26;;;;;;;4.13;3.00;;;;;;;;;;5072667;28;20422;-71
2021/04/06 13:09:52;;;;;;;5.53;3.00;;;;;;;;;;5071482;28;20419;-71
2021/04/06 13:12:20;;;;;;;6.73;2.73;;;;;;;;;;5077417;28;20428;-71
2021/04/06 13:14:46;;;;;;;8.33;2.73;;;;;;;;;;5073324;28;20449;-71
2021/04/06 13:17:13;;;;;;;10.07;2.87;;;;;;;;;;5070943;28;20416;-72
2021/04/06 13:19:39;;;;;;;7.90;3.50;;;;;;;;;;5072382;28;20438;-71
2021/04/06 13:22:05;;;;;;;5.70;3.13;;;;;;;;;;5073172;28;20524;-71
2021/04/06 13:24:31;;;;;;;7.40;3.30;;;;;;;;;;5073449;28;20498;-71
2021/04/06 13:26:58;;;;;;;3.97;3.03;;;;;;;;;;5073324;28;20491;-71
2021/04/06 13:29:24;;;;;;;4.73;2.67;;;;;;;;;;5076655;28;20467;-71
2021/04/06 13:31:50;;;;;;;5.67;2.93;;;;;;;;;;5073485;28;20421;-71
2021/04/06 13:34:16;;;;;;;4.90;2.40;;;;;;;;;;5072214;28;20430;-71
2021/04/06 13:36:42;;;;;;;3.90;2.50;;;;;;;;;;5073035;28;20420;-71
2021/04/06 13:39:09;;;;;;;6.13;2.67;;;;;;;;;;5072033;28;20678;-71
2021/04/06 13:41:35;;;;;;;3.73;2.43;;;;;;;;;;5074486;28;20401;-71
2021/04/06 13:44:02;;;;;;;6.03;2.50;;;;;;;;;;5072177;28;20422;-71
2021/04/06 13:46:28;;;;;;;6.93;2.07;;;;;;;;;;5072948;28;20427;-71
2021/04/06 13:48:54;;;;;;;3.20;1.90;;;;;;;;;;5072615;28;20463;-71
2021/04/06 13:51:20;;;;;;;4.77;2.33;;;;;;;;;;5070307;28;20414;-71
2021/04/06 13:53:46;;;;;;;3.10;2.80;;;;;;;;;;5070980;28;20496;-71
2021/04/06 13:56:12;;;;;;;5.47;2.30;;;;;;;;;;5073251;28;20475;-70
2021/04/06 13:58:38;;;;;;;3.47;2.30;;;;;;;;;;5067715;28;20442;-71
2021/04/06 14:01:04;;;;;;;6.07;2.57;;;;;;;;;;5070286;28;20406;-70
2021/04/06 14:03:31;;;;;;;5.13;2.63;;;;;;;;;;5072613;28;20429;-70
2021/04/06 14:05:57;;;;;;;9.30;2.90;;;;;;;;;;5077085;28;20441;-71
2021/04/06 14:08:23;;;;;;;4.60;2.70;;;;;;;;;;5071755;28;21264;-70
2021/04/06 14:10:49;;;;;;;3.63;2.60;;;;;;;;;;5070154;28;20461;-69
2021/04/06 14:13:16;;;;;;;7.57;2.57;;;;;;;;;;5070948;28;20450;-69
2021/04/06 14:15:43;;;;;;;4.70;2.50;;;;;;;;;;5066773;28;20463;-68
2021/04/06 14:18:10;;;;;;;5.20;2.13;;;;;;;;;;5070056;28;20467;-70
2021/04/06 14:20:37;;;;;;;5.40;2.87;;;;;;;;;;5084031;28;20453;-68
2021/04/06 14:23:07;;;;;;;3.70;2.37;;;;;;;;;;5083689;28;20425;-70
2021/04/06 14:25:33;;;;;;;5.27;2.77;;;;;;;;;;5072014;28;20470;-70
2021/04/06 14:28:00;;;;;;;3.33;2.20;;;;;;;;;;5071866;28;20437;-70
2021/04/06 14:30:36;;;;;;;4.63;1.90;;;;;;;;;;5072375;28;20774;-68
2021/04/06 14:33:03;;;;;;;4.97;2.30;;;;;;;;;;5072647;28;20421;-69